Terminal Aerodrome Forecast
Issued by NWS Lake Charles, LA

Home | Current Version | Previous Version | Text Only | Print | Product List | Glossary On
Versions: 1 2 3 4 5 6 7 8 9 10 11 12 13 14
107
FTUS44 KLCH 270520
TAFLFT
TAF
KLFT 270520Z 2706/2806 VRB03KT P6SM FEW010 BKN060
     FM271500 09005KT P6SM VCSH SCT025 BKN050
     FM271900 13007KT P6SM VCTS FEW020CB SCT030 BKN060 PROB30
      2719/2801 3SM TSRA BKN020CB OVC030
     FM280200 VRB03KT P6SM FEW035 BKN150=

USA.gov is the U.S. government's official web portal to all federal, state and local government web resources and services.